Weather at Stanhope Municipal Airport

Public forecast

Using degrees Celsius for public forecast. Weather courtesy of forecast.io.

Closest aviation weather report (METAR) to Stanhope Municipal Airport

Closest report is Muskoka Airport, 29.3 nm (54.3 km) WSW. Retrieved 2020/10/29 08:00 UTC (8 minutes ago):

CYQA 290800Z AUTO 09002KT 9SM FEW040 OVC065 04/03 A2984 RMK SLP115

Closest aviation forecast (TAF) to Stanhope Municipal Airport

Forecast is more than 12 hours old.

Closest forecast is Muskoka Airport, 29.3 nm (54.3 km) WSW. Retrieved 2020/10/28 20:00 UTC (12 hours ago):

TAF CYQA 281939Z 2820/2902 22015KT P6SM BKN040 BECMG 2822/2824 25008KT BECMG 2900/2902 30005KT RMK FCST BASED ON AUTO OBS NXT FCST WILL BE ISSUED AT 291145Z